EW4550 Weather Reports


Display with metric or nautical units.
time (UTC)temp
F
wind
direction
speed
MPH
gust
MPH
rain 1hr
in
rain 24hr
in
rain mn
in
humidity
%
barometer
mb
20210928022218 59 254 0.0 4.0 0.03 0.33 0.33 96 1017.6
20210928021701 60 254 0.0 4.0 0.03 0.33 0.33 96 1017.6
20210928021201 60 253 0.0 0.0 0.05 0.33 0.33 96 1017.6
20210928020650 60 248 0.0 0.0 0.09 0.33 0.33 96 1017.5
20210928020137 60 248 0.0 0.0 0.11 0.32 0.32 96 1017.4
20210928015627 61 248 0.0 0.0 0.07 0.31 0.31 96 1017.4
20210928015123 61 246 0.0 0.0 0.14 0.30 0.30 96 1017.4
20210928014622 61 246 0.0 0.0 0.37 0.29 0.29 96 1017.3
20210928014104 61 241 0.0 7.0 1.37 0.22 0.23 97 1017.1
20210928013607 61 260 0.0 6.0 0.38 0.18 0.18 97 1017.2
20210928013059 61 196 0.0 0.0 0.23 0.15 0.16 97 1017.2
20210928012540 61 196 0.0 1.0 0.18 0.13 0.14 97 1017.1
20210928012038 61 196 0.0 5.0 0.14 0.11 0.12 97 1017.1
20210928011528 61 196 0.0 2.0 0.06 0.11 0.11 97 1017.0
20210928011032 61 196 0.0 1.0 0.08 0.10 0.10 97 1017.1
20210928010524 62 196 0.0 0.0 0.08 0.09 0.10 97 1017.0
20210928010024 62 196 0.0 0.0 0.07 0.08 0.09 97 1017.0
20210928005530 62 196 0.0 4.0 0.14 0.08 0.08 97 1017.0
20210928005014 62 196 0.0 4.0 0.34 0.06 0.07 96 1016.9
20210928004507 62 191 0.0 4.0 0.06 0.03 0.04 96 1016.9
20210928004001 62 158 0.0 2.0 0.16 0.03 0.03 96 1016.8
20210928003450 62 157 0.0 1.0 0.00 0.00 0.00 96 1016.8
20210928002950 62 157 0.0 3.0 0.00 0.00 0.00 96 1016.8
20210928002439 62 158 0.0 2.0 0.00 0.00 0.00 96 1016.8
20210928001943 62 158 0.0 4.0 0.00 0.00 0.00 96 1016.9
20210928001427 61 157 0.0 4.0 0.00 0.00 0.00 96 1016.8
20210928000916 61 157 0.0 3.0 0.00 0.00 0.00 96 1016.9
20210928000423 61 157 0.0 3.0 0.00 0.00 0.00 96 1016.8
20210927235911 61 157 0.0 3.0 0.00 0.00 0.00 96 1016.7
20210927235352 61 157 0.0 2.0 0.00 0.00 0.00 96 1016.6
20210927234853 61 157 0.0 1.0 0.00 0.00 0.00 96 1016.7
20210927234356 61 157 0.0 2.0 0.00 0.00 0.00 96 1016.6
20210927233856 61 157 0.0 4.0 0.00 0.00 0.00 96 1016.6
20210927233356 61 157 0.0 4.0 0.00 0.00 0.00 96 1016.5
20210927232842 61 157 0.0 4.0 0.00 0.00 0.00 96 1016.5
20210927232324 61 157 0.0 4.0 0.00 0.00 0.00 96 1016.5
20210927231832 61 156 1.0 3.0 0.00 0.00 0.00 96 1016.6
20210927231339 61 155 0.0 6.0 0.00 0.00 0.00 96 1016.5
20210927230838 61 155 0.0 6.0 0.00 0.00 0.00 96 1016.5
20210927230334 61 155 0.0 6.0 0.00 0.00 0.00 96 1016.4
20210927225824 61 154 0.0 6.0 0.00 0.00 0.00 96 1016.4
20210927225319 61 147 0.0 3.0 0.00 0.00 0.00 96 1016.4
20210927224819 61 147 0.0 3.0 0.00 0.00 0.00 96 1016.4
20210927224329 61 147 0.0 1.0 0.00 0.00 0.00 96 1016.5
20210927223824 61 147 0.0 0.0 0.00 0.00 0.00 96 1016.5
20210927223332 61 146 0.0 3.0 0.00 0.00 0.00 96 1016.5
20210927222830 61 146 0.0 2.0 0.00 0.00 0.00 96 1016.4
20210927222324 61 146 0.0 2.0 0.00 0.00 0.00 96 1016.4
20210927221808 61 146 0.0 0.0 0.00 0.00 0.00 96 1016.4
20210927221251 61 146 0.0 1.0 0.00 0.00 0.00 96 1016.4
20210927220734 61 146 0.0 3.0 0.00 0.00 0.00 96 1016.4
20210927220235 61 146 0.0 2.0 0.00 0.00 0.00 96 1016.5
20210927215734 61 146 0.0 2.0 0.00 0.00 0.00 96 1016.4
20210927215221 60 146 0.0 2.0 0.00 0.00 0.00 95 1016.5
20210927214720 60 146 0.0 2.0 0.00 0.00 0.00 95 1016.5
20210927214206 60 146 0.0 2.0 0.00 0.00 0.00 95 1016.6
20210927213711 60 146 0.0 2.0 0.00 0.00 0.00 95 1016.6
20210927213216 60 146 0.0 2.0 0.00 0.00 0.00 95 1016.6
20210927212711 60 146 0.0 2.0 0.00 0.00 0.00 95 1016.6
20210927212217 60 146 0.0 2.0 0.00 0.00 0.00 95 1016.6
20210927211717 60 146 0.0 2.0 0.00 0.00 0.00 95 1016.6
20210927211158 60 146 0.0 2.0 0.00 0.00 0.00 95 1016.6
20210927210648 60 146 0.0 1.0 0.00 0.00 0.00 95 1016.6
20210927210137 60 146 0.0 3.0 0.00 0.00 0.00 95 1016.6
20210927205629 60 146 0.0 3.0 0.00 0.00 0.00 95 1016.5
20210927205139 60 146 0.0 3.0 0.00 0.00 0.00 95 1016.5
20210927204638 60 146 0.0 3.0 0.00 0.00 0.00 95 1016.6
20210927204120 60 146 0.0 2.0 0.00 0.00 0.00 94 1016.5
20210927203610 60 148 0.0 2.0 0.00 0.00 0.00 95 1016.5
20210927203106 60 144 0.0 2.0 0.00 0.00 0.00 95 1016.6
20210927202552 60 144 0.0 2.0 0.00 0.00 0.00 94 1016.6
20210927202058 60 144 0.0 2.0 0.00 0.00 0.00 94 1016.6
20210927201543 60 144 0.0 2.0 0.00 0.00 0.00 94 1016.6
20210927201034 60 144 0.0 1.0 0.00 0.00 0.00 94 1016.6
20210927200539 60 144 0.0 2.0 0.00 0.00 0.00 93 1016.8
20210927200039 60 144 0.0 3.0 0.00 0.00 0.00 93 1016.6
20210927195540 60 144 0.0 3.0 0.00 0.00 0.00 93 1016.7
20210927195029 60 144 0.0 3.0 0.00 0.00 0.00 93 1016.7
20210927194529 60 144 0.0 3.0 0.00 0.00 0.00 92 1016.6
20210927194027 60 144 0.0 4.0 0.00 0.00 0.00 92 1016.6
20210927193515 60 145 0.0 4.0 0.00 0.00 0.00 92 1016.6
20210927193023 60 145 0.0 4.0 0.00 0.00 0.00 91 1016.5
20210927192509 61 145 0.0 3.0 0.00 0.00 0.00 91 1016.6
20210927191957 61 146 0.0 3.0 0.00 0.00 0.00 90 1016.6
20210927191449 61 146 0.0 3.0 0.00 0.00 0.00 89 1016.6
20210927190933 61 146 0.0 3.0 0.00 0.00 0.00 89 1016.6
20210927190420 61 146 0.0 3.0 0.00 0.00 0.00 88 1016.6
20210927185910 61 145 1.0 3.0 0.00 0.00 0.00 88 1016.6
20210927185353 61 133 0.0 3.0 0.00 0.00 0.00 87 1016.6
20210927184847 61 132 0.0 3.0 0.00 0.00 0.00 87 1016.6
20210927184332 61 132 0.0 4.0 0.00 0.00 0.00 86 1016.6
20210927183813 61 142 1.0 4.0 0.00 0.00 0.00 86 1016.5
20210927183302 61 142 1.0 4.0 0.00 0.00 0.00 85 1016.5
20210927182810 61 142 1.0 4.0 0.00 0.00 0.00 85 1016.5
20210927182301 61 141 0.0 3.0 0.00 0.00 0.00 85 1016.5
20210927181745 61 141 0.0 3.0 0.00 0.00 0.00 85 1016.5
20210927181243 61 142 0.0 3.0 0.00 0.00 0.00 85 1016.4
20210927180734 61 141 0.0 3.0 0.00 0.00 0.00 85 1016.4
20210927180238 61 141 0.0 4.0 0.00 0.00 0.00 85 1016.5
20210927175719 61 141 1.0 4.0 0.00 0.00 0.00 85 1016.5
20210927175216 61 140 1.0 4.0 0.00 0.00 0.00 84 1016.5
20210927174706 61 140 1.0 4.0 0.00 0.00 0.00 84 1016.6
20210927174201 61 139 1.0 4.0 0.00 0.00 0.00 84 1016.6
20210927173658 61 138 1.0 4.0 0.00 0.00 0.00 84 1016.6
20210927173200 61 139 1.0 4.0 0.00 0.00 0.00 84 1016.6
20210927172658 61 139 1.0 4.0 0.00 0.00 0.00 84 1016.7
20210927172204 61 138 1.0 4.0 0.00 0.00 0.00 84 1016.7
20210927171651 61 109 1.0 4.0 0.00 0.00 0.00 84 1016.7
20210927171138 61 144 1.0 4.0 0.00 0.00 0.00 84 1016.7
20210927170635 61 135 1.0 5.0 0.00 0.00 0.00 84 1016.6
20210927170140 61 138 1.0 5.0 0.00 0.00 0.00 84 1016.6
20210927165638 61 136 0.0 5.0 0.00 0.00 0.00 85 1016.5
20210927165120 61 138 0.0 5.0 0.00 0.00 0.00 85 1016.5
20210927164602 61 126 0.0 2.0 0.00 0.00 0.00 85 1016.5
20210927164056 61 125 0.0 3.0 0.00 0.00 0.00 85 1016.6
20210927163537 61 127 0.0 3.0 0.00 0.00 0.00 85 1016.6
20210927163023 61 124 0.0 3.0 0.00 0.00 0.00 85 1016.6
20210927162511 61 115 0.0 3.0 0.00 0.00 0.00 85 1016.6
20210927161954 61 88 0.0 3.0 0.00 0.00 0.00 86 1016.5
20210927161439 61 81 0.0 3.0 0.00 0.00 0.00 86 1016.4
20210927160923 61 111 0.0 2.0 0.00 0.00 0.00 86 1016.6
20210927160423 61 105 0.0 2.0 0.00 0.00 0.00 86 1016.6
20210927155926 61 138 0.0 3.0 0.00 0.00 0.00 86 1016.6
20210927155411 61 138 0.0 3.0 0.00 0.00 0.00 86 1016.6
20210927154853 61 144 0.0 3.0 0.00 0.00 0.00 86 1016.7
20210927154339 61 143 1.0 4.0 0.00 0.00 0.00 86 1016.7
20210927153845 61 143 0.0 4.0 0.00 0.00 0.00 86 1016.6
20210927153332 61 98 0.0 4.0 0.00 0.00 0.00 86 1016.6
20210927152821 62 140 1.0 4.0 0.00 0.00 0.00 86 1016.7
20210927152328 62 147 1.0 6.0 0.00 0.00 0.00 86 1016.7
20210927151825 62 147 1.0 6.0 0.00 0.00 0.00 86 1016.5
20210927151318 62 148 2.0 6.0 0.00 0.00 0.00 85 1016.5
20210927150806 62 134 3.0 6.0 0.00 0.00 0.00 85 1016.6
20210927150246 62 133 2.0 6.0 0.00 0.00 0.00 86 1016.5
20210927145754 62 138 2.0 6.0 0.00 0.00 0.00 85 1016.6
20210927145248 62 136 2.0 6.0 0.00 0.00 0.00 85 1016.6
20210927144732 62 132 2.0 7.0 0.00 0.00 0.00 85 1016.6
20210927144217 62 139 2.0 7.0 0.00 0.00 0.00 85 1016.7
20210927143725 62 147 2.0 7.0 0.00 0.00 0.00 85 1016.7
20210927143227 62 157 1.0 7.0 0.00 0.00 0.00 85 1016.8
20210927142710 62 148 1.0 4.0 0.00 0.00 0.00 85 1016.7
20210927142201 62 148 1.0 6.0 0.00 0.00 0.00 85 1016.8
20210927141705 62 146 1.0 6.0 0.00 0.00 0.00 85 1016.7
20210927141148 62 155 2.0 6.0 0.00 0.00 0.00 84 1016.8
20210927140654 62 150 2.0 6.0 0.00 0.00 0.00 84 1016.8
20210927140138 63 146 2.0 5.0 0.00 0.00 0.00 84 1016.8
20210927135619 63 151 2.0 7.0 0.00 0.00 0.00 84 1016.8
20210927135125 63 153 2.0 7.0 0.00 0.00 0.00 84 1016.7
20210927134617 63 155 2.0 7.0 0.00 0.00 0.00 84 1016.8
20210927134104 63 164 2.0 7.0 0.00 0.00 0.00 84 1016.8
20210927133610 63 156 1.0 5.0 0.00 0.00 0.00 84 1016.7
20210927133118 63 149 1.0 5.0 0.00 0.00 0.00 84 1016.7
20210927132618 63 148 1.0 5.0 0.00 0.00 0.00 84 1016.7
20210927132122 63 151 2.0 7.0 0.00 0.00 0.00 84 1016.7
20210927131624 63 164 2.0 7.0 0.00 0.00 0.00 84 1016.6
20210927131110 63 149 3.0 7.0 0.00 0.00 0.00 84 1016.7
20210927130617 63 160 2.0 7.0 0.00 0.00 0.00 84 1016.8
20210927130100 63 154 1.0 5.0 0.00 0.00 0.00 84 1016.7
20210927125552 63 148 1.0 6.0 0.00 0.00 0.00 85 1016.7
20210927125057 63 150 1.0 6.0 0.00 0.00 0.00 84 1016.6
20210927124604 64 103 1.0 7.0 0.00 0.00 0.00 83 1016.5
20210927124114 64 141 2.0 7.0 0.00 0.00 0.00 80 1016.5
20210927123612 65 142 3.0 7.0 0.00 0.00 0.00 78 1016.7
20210927123109 65 133 3.0 7.0 0.00 0.00 0.00 76 1016.6
20210927122603 66 132 2.0 6.0 0.00 0.00 0.00 75 1016.6
20210927122046 66 137 3.0 6.0 0.00 0.00 0.00 74 1016.6
20210927121556 66 153 3.0 7.0 0.00 0.00 0.00 74 1016.7
20210927121043 66 144 2.0 7.0 0.00 0.00 0.00 74 1016.8
20210927120536 66 157 2.0 7.0 0.00 0.00 0.00 72 1016.8
20210927120027 67 157 2.0 7.0 0.00 0.00 0.00 73 1016.9
20210927115512 67 159 2.0 9.0 0.00 0.00 0.00 73 1016.9
20210927115006 67 148 2.0 9.0 0.00 0.00 0.00 71 1016.8
20210927114459 68 154 2.0 9.0 0.00 0.00 0.00 72 1016.8
20210927113943 68 171 3.0 9.0 0.00 0.00 0.00 71 1016.8
20210927113450 68 145 3.0 7.0 0.00 0.00 0.00 71 1016.7
20210927112942 68 153 3.0 7.0 0.00 0.00 0.00 71 1016.8
20210927112424 68 132 2.0 7.0 0.00 0.00 0.00 72 1016.8
20210927111914 68 148 2.0 6.0 0.00 0.00 0.00 73 1016.8
20210927111357 68 144 2.0 8.0 0.00 0.00 0.00 72 1016.9
20210927110837 68 142 3.0 8.0 0.00 0.00 0.00 72 1016.8
20210927110332 68 167 3.0 8.0 0.00 0.00 0.00 72 1016.8
20210927105815 68 140 3.0 8.0 0.00 0.00 0.00 72 1016.8
20210927105314 67 148 2.0 6.0 0.00 0.00 0.00 76 1016.9
20210927104803 67 134 2.0 5.0 0.00 0.00 0.00 77 1016.9
20210927104257 66 136 2.0 4.0 0.00 0.00 0.00 79 1017.0
20210927103800 65 137 2.0 5.0 0.00 0.00 0.00 80 1017.0
20210927103300 65 131 2.0 5.0 0.00 0.00 0.00 81 1017.0
20210927102758 65 175 2.0 5.0 0.00 0.00 0.00 82 1017.1
20210927102255 64 137 2.0 5.0 0.00 0.00 0.00 82 1017.1
20210927101805 64 138 3.0 6.0 0.00 0.00 0.00 82 1017.3
20210927101254 64 136 2.0 6.0 0.00 0.00 0.00 82 1017.3
20210927100738 64 138 2.0 6.0 0.00 0.00 0.00 82 1017.3
20210927100239 64 146 2.0 6.0 0.00 0.00 0.00 82 1017.4
20210927095740 64 143 2.0 6.0 0.00 0.00 0.00 83 1017.3
20210927095221 64 139 2.0 6.0 0.00 0.00 0.00 82 1017.5
20210927094722 65 154 2.0 6.0 0.00 0.00 0.00 82 1017.5
20210927094213 65 155 2.0 7.0 0.00 0.00 0.00 82 1017.4
20210927093707 65 162 2.0 8.0 0.00 0.00 0.00 83 1017.5
20210927093206 65 149 3.0 8.0 0.00 0.00 0.00 82 1017.6
20210927092659 65 148 3.0 8.0 0.00 0.00 0.00 82 1017.6
20210927092144 65 158 3.0 8.0 0.00 0.00 0.00 82 1017.6
20210927091644 66 145 2.0 7.0 0.00 0.00 0.00 81 1017.6
20210927091151 66 165 2.0 7.0 0.00 0.00 0.00 81 1017.5
20210927090642 65 138 3.0 7.0 0.00 0.00 0.00 81 1017.5
20210927090148 65 140 3.0 7.0 0.00 0.00 0.00 82 1017.4
20210927085630 65 146 3.0 7.0 0.00 0.00 0.00 82 1017.4
20210927085111 65 161 3.0 8.0 0.00 0.00 0.00 82 1017.5
20210927084552 65 154 3.0 8.0 0.00 0.00 0.00 81 1017.5
20210927084043 66 169 2.0 8.0 0.00 0.00 0.00 80 1017.5
20210927083549 66 157 2.0 8.0 0.00 0.00 0.00 81 1017.5
20210927083049 66 148 2.0 8.0 0.00 0.00 0.00 82 1017.5
20210927082532 65 159 2.0 8.0 0.00 0.00 0.00 82 1017.5
20210927082015 65 153 2.0 6.0 0.00 0.00 0.00 83 1017.5
20210927081508 65 154 1.0 5.0 0.00 0.00 0.00 83 1017.6
20210927080950 65 143 1.0 5.0 0.00 0.00 0.00 84 1017.5
20210927080500 64 143 2.0 5.0 0.00 0.00 0.00 84 1017.4
20210927075941 64 145 1.0 4.0 0.00 0.00 0.00 83 1017.4
20210927075434 64 134 1.0 4.0 0.00 0.00 0.00 84 1017.4
20210927074927 64 134 1.0 4.0 0.00 0.00 0.00 84 1017.4
20210927074428 64 134 1.0 4.0 0.00 0.00 0.00 84 1017.4
20210927073920 64 120 1.0 4.0 0.00 0.00 0.00 85 1017.4
20210927073410 64 119 1.0 4.0 0.00 0.00 0.00 85 1017.4
20210927072856 64 112 1.0 4.0 0.00 0.00 0.00 86 1017.4
20210927072406 63 107 1.0 4.0 0.00 0.00 0.00 86 1017.4
20210927071857 63 104 1.0 4.0 0.00 0.00 0.00 86 1017.4
20210927071400 63 130 1.0 4.0 0.00 0.00 0.00 88 1017.4
20210927070848 62 130 1.0 4.0 0.00 0.00 0.00 88 1017.4
20210927070340 62 130 0.0 4.0 0.00 0.00 0.00 88 1017.4
20210927065836 62 130 0.0 3.0 0.00 0.00 0.00 89 1017.5
20210927065327 62 130 0.0 3.0 0.00 0.00 0.00 89 1017.4
20210927064836 61 130 0.0 3.0 0.00 0.00 0.00 89 1017.4
20210927064332 61 132 0.0 0.0 0.00 0.00 0.00 90 1017.4
20210927063819 61 132 0.0 2.0 0.00 0.00 0.00 90 1017.4
20210927063320 61 132 0.0 1.0 0.00 0.00 0.00 91 1017.4
20210927062810 60 131 0.0 2.0 0.00 0.00 0.00 91 1017.3
20210927062259 60 131 0.0 1.0 0.00 0.00 0.00 92 1017.3
20210927061805 60 131 0.0 1.0 0.00 0.00 0.00 92 1017.4
20210927061247 60 131 0.0 0.0 0.00 0.00 0.00 92 1017.4
20210927060729 59 131 0.0 4.0 0.00 0.00 0.00 92 1017.4
20210927060222 59 131 0.0 4.0 0.00 0.00 0.00 93 1017.4
20210927055726 59 130 0.0 4.0 0.00 0.00 0.00 93 1017.3
20210927055229 59 97 0.0 2.0 0.00 0.00 0.00 93 1017.3
20210927054716 59 96 0.0 2.0 0.00 0.00 0.00 93 1017.3
20210927054202 59 96 0.0 0.0 0.00 0.00 0.00 93 1017.3
20210927053654 59 96 0.0 1.0 0.00 0.00 0.00 93 1017.4
20210927053143 59 96 0.0 1.0 0.00 0.00 0.00 93 1017.4
20210927052634 59 96 0.0 0.0 0.00 0.00 0.00 94 1017.4
20210927052132 59 96 0.0 1.0 0.00 0.00 0.00 94 1017.4
20210927051615 59 96 0.0 0.0 0.00 0.00 0.00 94 1017.4
20210927051100 59 96 0.0 0.0 0.00 0.00 0.00 93 1017.5
20210927050559 59 96 0.0 1.0 0.00 0.00 0.00 93 1017.5
20210927050103 59 96 0.0 2.0 0.00 0.00 0.00 93 1017.5
20210927045612 59 96 0.0 2.0 0.00 0.00 0.00 93 1017.6
20210927045119 59 94 0.0 0.0 0.00 0.00 0.00 93 1017.7
20210927044607 59 90 0.0 1.0 0.00 0.00 0.00 93 1017.7
20210927044048 59 90 0.0 2.0 0.00 0.00 0.00 93 1017.5
20210927043540 59 80 0.0 2.0 0.00 0.00 0.00 93 1017.5
20210927043050 59 80 0.0 0.0 0.00 0.00 0.00 93 1017.5
20210927042535 59 79 0.0 0.0 0.00 0.00 0.00 93 1017.5
20210927042041 59 79 0.0 0.0 0.00 0.00 0.00 93 1017.5
20210927041540 59 79 0.0 2.0 0.00 0.00 0.00 93 1017.6
20210927041023 59 80 0.0 1.0 0.00 0.00 0.00 94 1017.6
20210927040514 59 79 0.0 0.0 0.00 0.00 0.00 94 1017.7
20210927035955 59 78 0.0 0.0 0.00 0.00 0.00 93 1017.8
20210927035449 59 79 0.0 0.0 0.00 0.00 0.00 93 1017.8
20210927034936 59 79 0.0 2.0 0.00 0.00 0.00 93 1017.8
20210927034435 59 76 0.0 0.0 0.00 0.00 0.00 93 1017.7
20210927033941 59 75 0.0 0.0 0.00 0.00 0.00 93 1017.8
20210927033428 59 74 0.0 2.0 0.00 0.00 0.00 93 1017.9
20210927032932 58 70 0.0 2.0 0.00 0.00 0.00 93 1017.8
20210927032442 58 62 0.0 1.0 0.00 0.00 0.00 93 1017.8
20210927031945 58 61 0.0 4.0 0.00 0.00 0.00 93 1017.9
20210927031452 58 64 0.0 1.0 0.00 0.00 0.00 93 1018.0
20210927031000 58 63 0.0 0.0 0.00 0.00 0.00 93 1018.0
20210927030456 58 63 0.0 0.0 0.00 0.00 0.00 93 1018.0
20210927025947 58 63 0.0 0.0 0.00 0.00 0.00 92 1018.1
20210927025453 58 63 0.0 3.0 0.00 0.00 0.00 92 1018.1
20210927024949 58 68 0.0 4.0 0.00 0.00 0.00 92 1018.2
20210927024433 58 65 0.0 0.0 0.00 0.00 0.00 92 1018.3
20210927023935 58 65 0.0 6.0 0.00 0.00 0.00 92 1018.3
20210927023443 58 69 0.0 1.0 0.00 0.00 0.00 92 1018.3
20210927022939 58 67 0.0 0.0 0.00 0.00 0.00 92 1018.4
20210927022449 58 67 0.0 0.0 0.00 0.00 0.00 92 1018.4